sensor_id;sensor_type;location;lat;lon;timestamp;pressure;altitude;pressure_sealevel;temperature;humidity
55460;BME280;41326;45.302;-122.946;2022-11-18T00:00:47;102333.61;;;16.94;50.09
55460;BME280;41326;45.302;-122.946;2022-11-18T00:03:17;102335.32;;;16.90;50.25
55460;BME280;41326;45.302;-122.946;2022-11-18T00:08:17;102339.89;;;16.80;50.52
55460;BME280;41326;45.302;-122.946;2022-11-18T00:10:48;102348.10;;;16.75;50.67
55460;BME280;41326;45.302;-122.946;2022-11-18T00:13:19;102351.61;;;16.73;50.90
55460;BME280;41326;45.302;-122.946;2022-11-18T00:15:49;102344.74;;;16.74;51.06
55460;BME280;41326;45.302;-122.946;2022-11-18T00:18:20;102358.95;;;16.68;51.48
55460;BME280;41326;45.302;-122.946;2022-11-18T00:20:50;102360.88;;;16.69;51.53
55460;BME280;41326;45.302;-122.946;2022-11-18T00:23:20;102367.22;;;16.68;51.67
55460;BME280;41326;45.302;-122.946;2022-11-18T00:25:51;102358.14;;;16.71;51.64
55460;BME280;41326;45.302;-122.946;2022-11-18T00:28:21;102359.58;;;16.67;51.75
55460;BME280;41326;45.302;-122.946;2022-11-18T00:30:51;102362.24;;;16.64;51.97
55460;BME280;41326;45.302;-122.946;2022-11-18T00:33:21;102362.70;;;16.62;52.17
55460;BME280;41326;45.302;-122.946;2022-11-18T00:35:56;102365.20;;;16.63;52.23
55460;BME280;41326;45.302;-122.946;2022-11-18T00:38:22;102367.84;;;16.60;52.36
55460;BME280;41326;45.302;-122.946;2022-11-18T00:43:23;102377.37;;;16.82;51.96
55460;BME280;41326;45.302;-122.946;2022-11-18T00:45:53;102370.19;;;17.08;51.07
55460;BME280;41326;45.302;-122.946;2022-11-18T00:48:23;102370.36;;;17.33;50.30
55460;BME280;41326;45.302;-122.946;2022-11-18T00:50:54;102369.85;;;17.52;49.77
55460;BME280;41326;45.302;-122.946;2022-11-18T00:53:24;102373.14;;;17.61;49.55
55460;BME280;41326;45.302;-122.946;2022-11-18T00:55:54;102379.62;;;17.62;49.57
55460;BME280;41326;45.302;-122.946;2022-11-18T00:58:24;102379.59;;;17.54;49.90
55460;BME280;41326;45.302;-122.946;2022-11-18T01:00:56;102372.93;;;17.58;49.70
55460;BME280;41326;45.302;-122.946;2022-11-18T01:03:26;102378.70;;;17.74;49.31
55460;BME280;41326;45.302;-122.946;2022-11-18T01:05:55;102373.89;;;17.90;49.01
55460;BME280;41326;45.302;-122.946;2022-11-18T01:08:26;102377.24;;;18.04;48.72
55460;BME280;41326;45.302;-122.946;2022-11-18T01:10:56;102376.62;;;18.17;48.40
55460;BME280;41326;45.302;-122.946;2022-11-18T01:13:27;102383.84;;;18.13;48.60
55460;BME280;41326;45.302;-122.946;2022-11-18T01:15:58;102381.84;;;18.08;48.83
55460;BME280;41326;45.302;-122.946;2022-11-18T01:18:29;102385.19;;;17.98;49.12
55460;BME280;41326;45.302;-122.946;2022-11-18T01:20:59;102378.94;;;18.01;48.90
55460;BME280;41326;45.302;-122.946;2022-11-18T01:23:28;102384.48;;;18.14;48.62
55460;BME280;41326;45.302;-122.946;2022-11-18T01:26:02;102388.75;;;18.30;48.33
55460;BME280;41326;45.302;-122.946;2022-11-18T01:28:28;102391.19;;;18.35;48.27
55460;BME280;41326;45.302;-122.946;2022-11-18T01:31:02;102395.55;;;18.33;48.42
55460;BME280;41326;45.302;-122.946;2022-11-18T01:33:30;102391.18;;;18.30;48.53
55460;BME280;41326;45.302;-122.946;2022-11-18T01:36:00;102392.98;;;18.18;48.95
55460;BME280;41326;45.302;-122.946;2022-11-18T01:38:30;102392.64;;;18.07;49.26
55460;BME280;41326;45.302;-122.946;2022-11-18T01:41:01;102394.15;;;18.00;49.47
55460;BME280;41326;45.302;-122.946;2022-11-18T01:46:01;102397.53;;;17.94;49.50
55460;BME280;41326;45.302;-122.946;2022-11-18T01:48:35;102395.93;;;18.09;49.10
55460;BME280;41326;45.302;-122.946;2022-11-18T01:51:06;102397.51;;;18.25;48.74
55460;BME280;41326;45.302;-122.946;2022-11-18T01:53:36;102400.28;;;18.30;48.79
55460;BME280;41326;45.302;-122.946;2022-11-18T01:56:06;102402.14;;;18.31;48.92
55460;BME280;41326;45.302;-122.946;2022-11-18T01:58:35;102398.92;;;18.22;49.34
55460;BME280;41326;45.302;-122.946;2022-11-18T02:01:04;102402.86;;;18.12;49.70
55460;BME280;41326;45.302;-122.946;2022-11-18T02:03:34;102412.42;;;17.91;49.72
55460;BME280;41326;45.302;-122.946;2022-11-18T02:06:06;102409.33;;;17.89;49.09
55460;BME280;41326;45.302;-122.946;2022-11-18T02:08:35;102415.12;;;18.11;48.93
55460;BME280;41326;45.302;-122.946;2022-11-18T02:11:08;102402.94;;;18.33;48.48
55460;BME280;41326;45.302;-122.946;2022-11-18T02:13:35;102410.44;;;18.29;48.97
55460;BME280;41326;45.302;-122.946;2022-11-18T02:16:12;102408.78;;;18.23;49.58
55460;BME280;41326;45.302;-122.946;2022-11-18T02:18:41;102417.59;;;18.17;50.33
55460;BME280;41326;45.302;-122.946;2022-11-18T02:21:16;102418.08;;;18.08;51.81
55460;BME280;41326;45.302;-122.946;2022-11-18T02:31:13;102415.25;;;17.91;55.76
55460;BME280;41326;45.302;-122.946;2022-11-18T02:33:43;102415.70;;;17.89;56.30
55460;BME280;41326;45.302;-122.946;2022-11-18T02:36:14;102411.35;;;17.87;57.15
55460;BME280;41326;45.302;-122.946;2022-11-18T02:38:42;102407.04;;;17.86;57.28
55460;BME280;41326;45.302;-122.946;2022-11-18T02:41:12;102410.37;;;17.85;56.84
55460;BME280;41326;45.302;-122.946;2022-11-18T02:43:42;102414.92;;;17.84;56.26
55460;BME280;41326;45.302;-122.946;2022-11-18T02:46:13;102412.53;;;17.89;56.57
55460;BME280;41326;45.302;-122.946;2022-11-18T02:48:42;102407.76;;;17.89;56.14
55460;BME280;41326;45.302;-122.946;2022-11-18T02:51:12;102408.85;;;17.91;55.68
55460;BME280;41326;45.302;-122.946;2022-11-18T02:53:41;102403.23;;;17.95;55.41
55460;BME280;41326;45.302;-122.946;2022-11-18T02:56:11;102400.14;;;17.90;55.40
55460;BME280;41326;45.302;-122.946;2022-11-18T02:58:41;102395.78;;;17.91;55.41
55460;BME280;41326;45.302;-122.946;2022-11-18T03:01:14;102395.02;;;17.89;55.78
55460;BME280;41326;45.302;-122.946;2022-11-18T03:03:42;102395.21;;;17.84;55.83
55460;BME280;41326;45.302;-122.946;2022-11-18T03:06:18;102400.60;;;17.82;55.95
55460;BME280;41326;45.302;-122.946;2022-11-18T03:08:44;102406.76;;;17.80;56.07
55460;BME280;41326;45.302;-122.946;2022-11-18T03:11:18;102410.38;;;17.83;55.92
55460;BME280;41326;45.302;-122.946;2022-11-18T03:13:51;102405.71;;;17.87;56.00
55460;BME280;41326;45.302;-122.946;2022-11-18T03:16:18;102401.01;;;17.92;56.13
55460;BME280;41326;45.302;-122.946;2022-11-18T03:18:49;102401.92;;;17.89;56.35
55460;BME280;41326;45.302;-122.946;2022-11-18T03:21:19;102404.81;;;17.86;56.53
55460;BME280;41326;45.302;-122.946;2022-11-18T03:23:50;102406.56;;;17.81;56.35
55460;BME280;41326;45.302;-122.946;2022-11-18T03:26:17;102413.60;;;17.82;56.13
55460;BME280;41326;45.302;-122.946;2022-11-18T03:28:49;102414.26;;;17.74;55.95
55460;BME280;41326;45.302;-122.946;2022-11-18T03:31:20;102408.97;;;17.67;55.59
55460;BME280;41326;45.302;-122.946;2022-11-18T03:33:51;102402.41;;;17.88;54.50
55460;BME280;41326;45.302;-122.946;2022-11-18T03:36:17;102398.91;;;18.06;53.69
55460;BME280;41326;45.302;-122.946;2022-11-18T03:38:49;102404.73;;;18.12;53.41
55460;BME280;41326;45.302;-122.946;2022-11-18T03:41:16;102407.44;;;18.08;53.49
55460;BME280;41326;45.302;-122.946;2022-11-18T03:43:51;102403.06;;;18.04;53.56
55460;BME280;41326;45.302;-122.946;2022-11-18T03:46:21;102402.57;;;17.98;53.65
55460;BME280;41326;45.302;-122.946;2022-11-18T03:48:50;102408.83;;;17.97;53.32
55460;BME280;41326;45.302;-122.946;2022-11-18T03:51:21;102402.08;;;17.88;53.44
55460;BME280;41326;45.302;-122.946;2022-11-18T03:53:51;102403.50;;;17.82;53.54
55460;BME280;41326;45.302;-122.946;2022-11-18T03:56:21;102406.15;;;17.78;53.66
55460;BME280;41326;45.302;-122.946;2022-11-18T03:58:52;102405.87;;;17.72;53.79
55460;BME280;41326;45.302;-122.946;2022-11-18T04:01:23;102406.52;;;17.67;53.89
55460;BME280;41326;45.302;-122.946;2022-11-18T04:03:49;102408.67;;;17.65;53.88
55460;BME280;41326;45.302;-122.946;2022-11-18T04:06:27;102416.11;;;17.66;53.62
55460;BME280;41326;45.302;-122.946;2022-11-18T04:08:52;102420.70;;;17.87;52.89
55460;BME280;41326;45.302;-122.946;2022-11-18T04:11:22;102423.19;;;18.05;52.38
55460;BME280;41326;45.302;-122.946;2022-11-18T04:13:50;102424.71;;;18.11;52.17
55460;BME280;41326;45.302;-122.946;2022-11-18T04:16:21;102419.57;;;18.12;52.03
55460;BME280;41326;45.302;-122.946;2022-11-18T04:18:50;102415.97;;;18.07;52.22
55460;BME280;41326;45.302;-122.946;2022-11-18T04:21:20;102416.11;;;17.97;52.51
55460;BME280;41326;45.302;-122.946;2022-11-18T04:23:51;102417.83;;;17.88;52.78
55460;BME280;41326;45.302;-122.946;2022-11-18T04:26:21;102427.38;;;17.83;52.96
55460;BME280;41326;45.302;-122.946;2022-11-18T04:28:51;102431.10;;;17.84;52.71
55460;BME280;41326;45.302;-122.946;2022-11-18T04:31:22;102432.93;;;17.82;52.62
55460;BME280;41326;45.302;-122.946;2022-11-18T04:33:52;102432.97;;;17.81;52.55
55460;BME280;41326;45.302;-122.946;2022-11-18T04:36:22;102434.93;;;18.07;51.78
55460;BME280;41326;45.302;-122.946;2022-11-18T04:38:53;102443.87;;;18.14;51.55
55460;BME280;41326;45.302;-122.946;2022-11-18T04:41:23;102435.94;;;18.17;51.47
55460;BME280;41326;45.302;-122.946;2022-11-18T04:43:53;102436.05;;;18.14;51.63
55460;BME280;41326;45.302;-122.946;2022-11-18T04:46:24;102435.35;;;18.07;51.85
55460;BME280;41326;45.302;-122.946;2022-11-18T04:48:54;102433.93;;;18.03;51.91
55460;BME280;41326;45.302;-122.946;2022-11-18T04:51:24;102428.54;;;17.98;51.99
55460;BME280;41326;45.302;-122.946;2022-11-18T04:53:54;102424.56;;;17.91;52.09
55460;BME280;41326;45.302;-122.946;2022-11-18T04:56:25;102428.65;;;17.87;52.25
55460;BME280;41326;45.302;-122.946;2022-11-18T04:58:55;102430.84;;;17.81;52.46
55460;BME280;41326;45.302;-122.946;2022-11-18T05:01:25;102430.82;;;17.77;52.62
55460;BME280;41326;45.302;-122.946;2022-11-18T05:03:56;102435.28;;;17.74;52.68
55460;BME280;41326;45.302;-122.946;2022-11-18T05:06:26;102433.97;;;17.69;52.74
55460;BME280;41326;45.302;-122.946;2022-11-18T05:08:56;102443.84;;;17.67;52.66
55460;BME280;41326;45.302;-122.946;2022-11-18T05:11:27;102448.75;;;17.64;52.55
55460;BME280;41326;45.302;-122.946;2022-11-18T05:13:57;102438.74;;;17.62;52.58
55460;BME280;41326;45.302;-122.946;2022-11-18T05:16:27;102448.33;;;17.58;52.76
55460;BME280;41326;45.302;-122.946;2022-11-18T05:18:58;102444.54;;;17.54;52.89
55460;BME280;41326;45.302;-122.946;2022-11-18T05:22:36;102450.48;;;17.49;52.98
55460;BME280;41326;45.302;-122.946;2022-11-18T05:25:08;102454.62;;;17.44;53.13
55460;BME280;41326;45.302;-122.946;2022-11-18T05:27:37;102457.16;;;17.43;53.13
55460;BME280;41326;45.302;-122.946;2022-11-18T05:30:07;102463.04;;;17.42;52.90
55460;BME280;41326;45.302;-122.946;2022-11-18T05:32:37;102468.63;;;17.40;52.83
55460;BME280;41326;45.302;-122.946;2022-11-18T05:35:08;102461.90;;;17.36;52.90
55460;BME280;41326;45.302;-122.946;2022-11-18T05:37:38;102446.83;;;17.36;52.89
55460;BME280;41326;45.302;-122.946;2022-11-18T05:40:10;102446.15;;;17.32;52.90
55460;BME280;41326;45.302;-122.946;2022-11-18T05:42:39;102450.19;;;17.31;52.82
55460;BME280;41326;45.302;-122.946;2022-11-18T05:45:10;102451.28;;;17.28;52.76
55460;BME280;41326;45.302;-122.946;2022-11-18T05:47:40;102450.12;;;17.26;52.82
55460;BME280;41326;45.302;-122.946;2022-11-18T05:50:11;102456.82;;;17.26;52.55
55460;BME280;41326;45.302;-122.946;2022-11-18T05:52:41;102465.57;;;17.22;52.62
55460;BME280;41326;45.302;-122.946;2022-11-18T05:55:12;102471.74;;;17.19;52.67
55460;BME280;41326;45.302;-122.946;2022-11-18T05:57:42;102475.83;;;17.17;52.68
55460;BME280;41326;45.302;-122.946;2022-11-18T06:00:13;102477.54;;;17.15;52.67
55460;BME280;41326;45.302;-122.946;2022-11-18T06:02:42;102474.14;;;17.12;52.77
55460;BME280;41326;45.302;-122.946;2022-11-18T06:05:12;102480.77;;;17.13;52.59
55460;BME280;41326;45.302;-122.946;2022-11-18T06:07:43;102480.64;;;17.08;52.72
55460;BME280;41326;45.302;-122.946;2022-11-18T06:10:15;102483.00;;;17.10;52.41
55460;BME280;41326;45.302;-122.946;2022-11-18T06:12:48;102478.69;;;17.09;52.41
55460;BME280;41326;45.302;-122.946;2022-11-18T06:15:17;102482.96;;;17.08;52.46
55460;BME280;41326;45.302;-122.946;2022-11-18T06:17:47;102480.49;;;17.07;52.44
55460;BME280;41326;45.302;-122.946;2022-11-18T06:20:16;102481.24;;;17.07;52.34
55460;BME280;41326;45.302;-122.946;2022-11-18T06:22:44;102479.19;;;17.02;52.46
55460;BME280;41326;45.302;-122.946;2022-11-18T06:25:15;102481.14;;;17.00;52.35
55460;BME280;41326;45.302;-122.946;2022-11-18T06:27:45;102491.65;;;16.99;52.36
55460;BME280;41326;45.302;-122.946;2022-11-18T06:30:16;102489.59;;;17.00;52.21
55460;BME280;41326;45.302;-122.946;2022-11-18T06:32:46;102483.35;;;16.97;52.24
55460;BME280;41326;45.302;-122.946;2022-11-18T06:35:17;102489.95;;;16.98;52.18
55460;BME280;41326;45.302;-122.946;2022-11-18T06:37:47;102490.05;;;16.93;52.16
55460;BME280;41326;45.302;-122.946;2022-11-18T06:40:18;102489.68;;;16.92;52.16
55460;BME280;41326;45.302;-122.946;2022-11-18T06:42:47;102481.02;;;16.91;52.06
55460;BME280;41326;45.302;-122.946;2022-11-18T06:45:17;102484.70;;;16.87;52.05
55460;BME280;41326;45.302;-122.946;2022-11-18T06:47:48;102477.31;;;16.90;51.85
55460;BME280;41326;45.302;-122.946;2022-11-18T06:50:18;102472.50;;;16.88;51.78
55460;BME280;41326;45.302;-122.946;2022-11-18T06:52:48;102469.57;;;16.84;51.96
55460;BME280;41326;45.302;-122.946;2022-11-18T06:55:19;102473.46;;;16.81;52.09
55460;BME280;41326;45.302;-122.946;2022-11-18T06:57:49;102468.49;;;16.83;52.02
55460;BME280;41326;45.302;-122.946;2022-11-18T07:00:22;102465.40;;;16.77;52.20
55460;BME280;41326;45.302;-122.946;2022-11-18T07:02:55;102462.93;;;16.76;52.25
55460;BME280;41326;45.302;-122.946;2022-11-18T07:05:26;102466.85;;;16.74;52.33
55460;BME280;41326;45.302;-122.946;2022-11-18T07:07:56;102458.86;;;16.68;52.44
55460;BME280;41326;45.302;-122.946;2022-11-18T07:10:26;102456.35;;;16.68;52.59
55460;BME280;41326;45.302;-122.946;2022-11-18T07:12:56;102462.65;;;16.67;52.87
55460;BME280;41326;45.302;-122.946;2022-11-18T07:15:27;102464.40;;;16.64;52.86
55460;BME280;41326;45.302;-122.946;2022-11-18T07:17:57;102464.39;;;16.63;52.91
55460;BME280;41326;45.302;-122.946;2022-11-18T07:20:27;102459.48;;;16.62;52.89
55460;BME280;41326;45.302;-122.946;2022-11-18T07:22:58;102462.06;;;16.61;52.94
55460;BME280;41326;45.302;-122.946;2022-11-18T07:25:29;102473.27;;;16.59;52.91
55460;BME280;41326;45.302;-122.946;2022-11-18T07:27:58;102471.13;;;16.59;52.97
55460;BME280;41326;45.302;-122.946;2022-11-18T07:30:29;102470.89;;;16.59;53.20
55460;BME280;41326;45.302;-122.946;2022-11-18T07:33:00;102481.29;;;16.55;53.57
55460;BME280;41326;45.302;-122.946;2022-11-18T07:35:30;102482.64;;;16.55;53.32
55460;BME280;41326;45.302;-122.946;2022-11-18T07:38:00;102485.08;;;16.56;53.26
55460;BME280;41326;45.302;-122.946;2022-11-18T07:40:30;102487.56;;;16.49;53.46
55460;BME280;41326;45.302;-122.946;2022-11-18T07:43:01;102478.61;;;16.52;53.39
55460;BME280;41326;45.302;-122.946;2022-11-18T07:45:31;102471.36;;;16.46;53.57
55460;BME280;41326;45.302;-122.946;2022-11-18T07:48:02;102471.48;;;16.45;53.64
55460;BME280;41326;45.302;-122.946;2022-11-18T07:50:33;102478.05;;;16.46;53.63
55460;BME280;41326;45.302;-122.946;2022-11-18T07:53:03;102476.99;;;16.43;53.98
55460;BME280;41326;45.302;-122.946;2022-11-18T07:55:33;102483.29;;;16.38;54.15
55460;BME280;41326;45.302;-122.946;2022-11-18T07:58:03;102485.66;;;16.35;54.29
55460;BME280;41326;45.302;-122.946;2022-11-18T08:00:34;102483.70;;;16.34;54.31
55460;BME280;41326;45.302;-122.946;2022-11-18T08:03:04;102481.80;;;16.33;54.30
55460;BME280;41326;45.302;-122.946;2022-11-18T08:05:34;102486.80;;;16.31;54.33
55460;BME280;41326;45.302;-122.946;2022-11-18T08:08:05;102491.47;;;16.32;54.54
55460;BME280;41326;45.302;-122.946;2022-11-18T08:10:35;102496.79;;;16.28;54.58
55460;BME280;41326;45.302;-122.946;2022-11-18T08:13:05;102493.00;;;16.26;55.00
55460;BME280;41326;45.302;-122.946;2022-11-18T08:15:39;102497.05;;;16.24;55.26
55460;BME280;41326;45.302;-122.946;2022-11-18T08:18:06;102498.31;;;16.24;54.95
55460;BME280;41326;45.302;-122.946;2022-11-18T08:20:36;102494.32;;;16.22;54.91
55460;BME280;41326;45.302;-122.946;2022-11-18T08:23:06;102492.30;;;16.22;55.04
55460;BME280;41326;45.302;-122.946;2022-11-18T08:25:36;102487.98;;;16.19;55.03
55460;BME280;41326;45.302;-122.946;2022-11-18T08:28:07;102496.60;;;16.15;55.36
55460;BME280;41326;45.302;-122.946;2022-11-18T08:30:38;102492.75;;;16.09;55.70
55460;BME280;41326;45.302;-122.946;2022-11-18T08:33:07;102480.79;;;16.10;55.67
55460;BME280;41326;45.302;-122.946;2022-11-18T08:35:38;102470.88;;;16.12;55.54
55460;BME280;41326;45.302;-122.946;2022-11-18T08:38:07;102461.99;;;16.11;55.43
55460;BME280;41326;45.302;-122.946;2022-11-18T08:40:38;102461.10;;;16.08;55.47
55460;BME280;41326;45.302;-122.946;2022-11-18T08:43:08;102462.52;;;16.06;55.67
55460;BME280;41326;45.302;-122.946;2022-11-18T08:45:38;102457.62;;;16.07;55.55
55460;BME280;41326;45.302;-122.946;2022-11-18T08:48:09;102452.97;;;16.03;55.77
55460;BME280;41326;45.302;-122.946;2022-11-18T08:50:38;102445.26;;;16.02;55.89
55460;BME280;41326;45.302;-122.946;2022-11-18T08:53:09;102439.05;;;16.01;55.89
55460;BME280;41326;45.302;-122.946;2022-11-18T08:55:39;102445.28;;;15.98;55.88
55460;BME280;41326;45.302;-122.946;2022-11-18T08:58:10;102440.56;;;15.96;55.91
55460;BME280;41326;45.302;-122.946;2022-11-18T09:00:40;102429.23;;;15.99;55.76
55460;BME280;41326;45.302;-122.946;2022-11-18T09:03:10;102446.34;;;15.94;55.93
55460;BME280;41326;45.302;-122.946;2022-11-18T09:05:41;102448.91;;;15.93;55.89
55460;BME280;41326;45.302;-122.946;2022-11-18T09:08:11;102442.05;;;15.94;56.07
55460;BME280;41326;45.302;-122.946;2022-11-18T09:10:42;102443.52;;;15.90;56.45
55460;BME280;41326;45.302;-122.946;2022-11-18T09:13:12;102444.42;;;15.88;56.52
55460;BME280;41326;45.302;-122.946;2022-11-18T09:15:42;102445.66;;;15.88;56.48
55460;BME280;41326;45.302;-122.946;2022-11-18T09:18:14;102456.13;;;15.89;56.35
55460;BME280;41326;45.302;-122.946;2022-11-18T09:23:13;102448.34;;;15.85;56.40
55460;BME280;41326;45.302;-122.946;2022-11-18T09:25:44;102452.16;;;15.84;56.34
55460;BME280;41326;45.302;-122.946;2022-11-18T09:28:14;102449.08;;;15.85;56.15
55460;BME280;41326;45.302;-122.946;2022-11-18T09:30:44;102441.85;;;15.82;56.22
55460;BME280;41326;45.302;-122.946;2022-11-18T09:33:15;102446.69;;;15.81;56.15
55460;BME280;41326;45.302;-122.946;2022-11-18T09:35:47;102439.45;;;15.82;56.23
55460;BME280;41326;45.302;-122.946;2022-11-18T09:38:15;102435.15;;;15.78;56.28
55460;BME280;41326;45.302;-122.946;2022-11-18T09:40:54;102433.07;;;15.76;56.35
55460;BME280;41326;45.302;-122.946;2022-11-18T09:43:23;102428.32;;;15.78;56.20
55460;BME280;41326;45.302;-122.946;2022-11-18T09:45:51;102426.89;;;15.79;56.22
55460;BME280;41326;45.302;-122.946;2022-11-18T09:48:21;102429.38;;;15.80;56.01
55460;BME280;41326;45.302;-122.946;2022-11-18T09:50:47;102426.66;;;15.74;56.25
55460;BME280;41326;45.302;-122.946;2022-11-18T09:53:23;102425.46;;;15.73;56.28
55460;BME280;41326;45.302;-122.946;2022-11-18T09:55:48;102434.38;;;15.73;56.19
55460;BME280;41326;45.302;-122.946;2022-11-18T09:58:21;102430.12;;;15.69;56.29
55460;BME280;41326;45.302;-122.946;2022-11-18T10:00:48;102436.73;;;15.71;56.25
55460;BME280;41326;45.302;-122.946;2022-11-18T10:03:22;102444.57;;;15.67;56.33
55460;BME280;41326;45.302;-122.946;2022-11-18T10:05:54;102444.30;;;15.66;56.28
55460;BME280;41326;45.302;-122.946;2022-11-18T10:08:26;102429.20;;;15.65;56.25
55460;BME280;41326;45.302;-122.946;2022-11-18T10:10:56;102434.78;;;15.66;56.26
55460;BME280;41326;45.302;-122.946;2022-11-18T10:13:26;102438.80;;;15.63;56.32
55460;BME280;41326;45.302;-122.946;2022-11-18T10:15:57;102442.35;;;15.62;56.35
55460;BME280;41326;45.302;-122.946;2022-11-18T10:18:26;102439.89;;;15.59;56.50
55460;BME280;41326;45.302;-122.946;2022-11-18T10:20:56;102444.09;;;15.59;56.53
55460;BME280;41326;45.302;-122.946;2022-11-18T10:23:25;102447.70;;;15.60;56.45
55460;BME280;41326;45.302;-122.946;2022-11-18T10:25:51;102450.78;;;15.57;56.51
55460;BME280;41326;45.302;-122.946;2022-11-18T10:28:27;102442.52;;;15.54;56.59
55460;BME280;41326;45.302;-122.946;2022-11-18T10:30:51;102431.96;;;15.52;56.68
55460;BME280;41326;45.302;-122.946;2022-11-18T10:33:28;102432.34;;;15.50;56.69
55460;BME280;41326;45.302;-122.946;2022-11-18T10:38:24;102430.06;;;15.52;56.74
55460;BME280;41326;45.302;-122.946;2022-11-18T10:40:59;102426.18;;;15.53;56.61
55460;BME280;41326;45.302;-122.946;2022-11-18T10:45:54;102413.33;;;15.46;56.86
55460;BME280;41326;45.302;-122.946;2022-11-18T10:48:24;102412.83;;;15.44;56.70
55460;BME280;41326;45.302;-122.946;2022-11-18T10:50:56;102406.73;;;15.42;56.76
55460;BME280;41326;45.302;-122.946;2022-11-18T10:53:30;102404.55;;;15.40;56.73
55460;BME280;41326;45.302;-122.946;2022-11-18T10:56:01;102404.21;;;15.43;56.54
55460;BME280;41326;45.302;-122.946;2022-11-18T10:58:25;102407.45;;;15.40;56.62
55460;BME280;41326;45.302;-122.946;2022-11-18T11:03:30;102425.55;;;15.38;56.70
55460;BME280;41326;45.302;-122.946;2022-11-18T11:08:28;102430.89;;;15.36;56.49
55460;BME280;41326;45.302;-122.946;2022-11-18T11:10:59;102437.06;;;15.38;56.46
55460;BME280;41326;45.302;-122.946;2022-11-18T11:13:29;102438.94;;;15.34;56.60
55460;BME280;41326;45.302;-122.946;2022-11-18T11:16:00;102434.45;;;15.33;56.45
55460;BME280;41326;45.302;-122.946;2022-11-18T11:18:30;102439.51;;;15.29;56.45
55460;BME280;41326;45.302;-122.946;2022-11-18T11:20:58;102442.03;;;15.29;56.34
55460;BME280;41326;45.302;-122.946;2022-11-18T11:23:29;102442.82;;;15.25;56.54
55460;BME280;41326;45.302;-122.946;2022-11-18T11:26:03;102446.92;;;15.24;56.41
55460;BME280;41326;45.302;-122.946;2022-11-18T11:28:35;102460.58;;;15.20;56.50
55460;BME280;41326;45.302;-122.946;2022-11-18T11:31:08;102453.92;;;15.19;56.51
55460;BME280;41326;45.302;-122.946;2022-11-18T11:33:35;102447.56;;;15.18;56.64
55460;BME280;41326;45.302;-122.946;2022-11-18T11:36:08;102449.50;;;15.18;56.55
55460;BME280;41326;45.302;-122.946;2022-11-18T11:38:41;102456.80;;;15.20;56.45
55460;BME280;41326;45.302;-122.946;2022-11-18T11:41:09;102451.27;;;15.17;56.55
55460;BME280;41326;45.302;-122.946;2022-11-18T11:43:40;102455.21;;;15.18;56.43
55460;BME280;41326;45.302;-122.946;2022-11-18T11:46:16;102449.12;;;15.18;56.40
55460;BME280;41326;45.302;-122.946;2022-11-18T11:48:40;102454.75;;;15.17;56.27
55460;BME280;41326;45.302;-122.946;2022-11-18T11:51:06;102451.33;;;15.13;56.38
55460;BME280;41326;45.302;-122.946;2022-11-18T11:53:47;102445.55;;;15.08;56.56
55460;BME280;41326;45.302;-122.946;2022-11-18T11:56:11;102449.20;;;15.08;56.56
55460;BME280;41326;45.302;-122.946;2022-11-18T11:58:48;102437.94;;;15.05;56.66
55460;BME280;41326;45.302;-122.946;2022-11-18T12:01:12;102434.49;;;15.03;56.66
55460;BME280;41326;45.302;-122.946;2022-11-18T12:03:41;102426.21;;;14.99;56.75
55460;BME280;41326;45.302;-122.946;2022-11-18T12:06:06;102423.11;;;15.01;56.63
55460;BME280;41326;45.302;-122.946;2022-11-18T12:08:35;102419.17;;;14.99;56.61
55460;BME280;41326;45.302;-122.946;2022-11-18T12:11:11;102417.63;;;14.96;56.59
55460;BME280;41326;45.302;-122.946;2022-11-18T12:13:42;102421.67;;;14.94;56.63
55460;BME280;41326;45.302;-122.946;2022-11-18T12:16:17;102428.65;;;14.97;56.45
55460;BME280;41326;45.302;-122.946;2022-11-18T12:18:41;102428.98;;;14.93;56.57
55460;BME280;41326;45.302;-122.946;2022-11-18T12:21:06;102428.65;;;14.92;56.59
55460;BME280;41326;45.302;-122.946;2022-11-18T12:23:37;102425.07;;;14.93;56.51
55460;BME280;41326;45.302;-122.946;2022-11-18T12:26:09;102421.52;;;14.92;56.48
55460;BME280;41326;45.302;-122.946;2022-11-18T12:28:39;102419.16;;;14.88;56.56
55460;BME280;41326;45.302;-122.946;2022-11-18T12:33:41;102415.44;;;14.84;56.59
55460;BME280;41326;45.302;-122.946;2022-11-18T12:36:08;102410.68;;;14.86;56.47
55460;BME280;41326;45.302;-122.946;2022-11-18T12:38:38;102407.93;;;14.88;56.57
55460;BME280;41326;45.302;-122.946;2022-11-18T12:46:09;102396.94;;;14.82;56.68
55460;BME280;41326;45.302;-122.946;2022-11-18T12:48:41;102411.56;;;14.82;56.58
55460;BME280;41326;45.302;-122.946;2022-11-18T12:53:43;102406.85;;;14.78;56.62
55460;BME280;41326;45.302;-122.946;2022-11-18T12:56:20;102406.91;;;14.80;56.40
55460;BME280;41326;45.302;-122.946;2022-11-18T12:58:43;102411.96;;;14.79;56.47
55460;BME280;41326;45.302;-122.946;2022-11-18T13:01:15;102408.64;;;14.78;56.43
55460;BME280;41326;45.302;-122.946;2022-11-18T13:03:42;102415.80;;;14.72;56.67
55460;BME280;41326;45.302;-122.946;2022-11-18T13:06:22;102422.67;;;14.71;56.69
55460;BME280;41326;45.302;-122.946;2022-11-18T13:08:48;102423.05;;;14.69;56.74
55460;BME280;41326;45.302;-122.946;2022-11-18T13:11:16;102436.53;;;14.66;56.79
55460;BME280;41326;45.302;-122.946;2022-11-18T13:13:44;102425.60;;;14.64;56.79